createdAt,value
2018-06-11T00:01:03.877Z,0
2018-06-11T00:02:12.840Z,0
2018-06-11T00:03:21.703Z,0
2018-06-11T00:04:30.841Z,0
2018-06-11T00:05:39.702Z,0
2018-06-11T00:06:48.838Z,0
2018-06-11T00:07:58.125Z,0
2018-06-11T00:09:06.984Z,0
2018-06-11T00:10:15.846Z,0
2018-06-11T00:11:24.712Z,0
2018-06-11T00:12:34.124Z,0
2018-06-11T00:13:43.132Z,0
2018-06-11T00:14:51.994Z,0
2018-06-11T00:16:00.856Z,0
2018-06-11T00:17:09.717Z,0
2018-06-11T00:18:18.580Z,0
2018-06-11T00:19:27.688Z,0
2018-06-11T00:20:36.829Z,0
2018-06-11T00:21:45.691Z,0
2018-06-11T00:22:54.560Z,0
2018-06-11T00:24:03.415Z,0
2018-06-11T00:25:12.657Z,0
2018-06-11T00:26:21.795Z,0
2018-06-11T00:27:30.658Z,0
2018-06-11T00:28:39.519Z,0
2018-06-11T00:29:48.945Z,0
2018-06-11T00:30:57.808Z,0
2018-06-11T00:32:06.669Z,0
2018-06-11T00:33:15.531Z,0
2018-06-11T00:34:24.399Z,0
2018-06-11T00:35:33.254Z,0
2018-06-11T00:36:42.592Z,0
2018-06-11T00:37:51.453Z,0
2018-06-11T00:39:00.314Z,0
2018-06-11T00:40:09.452Z,0
2018-06-11T00:41:18.590Z,0
2018-06-11T00:42:27.731Z,0
2018-06-11T00:43:36.593Z,0
2018-06-11T00:44:45.453Z,0
2018-06-11T00:45:54.315Z,0
2018-06-11T00:47:03.179Z,0
2018-06-11T00:48:12.418Z,0
2018-06-11T00:49:21.562Z,0
2018-06-11T00:50:30.699Z,0
2018-06-11T00:51:39.560Z,0
2018-06-11T00:52:48.703Z,0
2018-06-11T00:53:57.893Z,0
2018-06-11T00:55:07.029Z,0
2018-06-11T00:56:15.888Z,0
2018-06-11T00:57:24.753Z,0
2018-06-11T00:58:33.887Z,0
2018-06-11T00:59:42.753Z,0
2018-06-11T01:00:51.613Z,0
2018-06-11T01:02:00.478Z,0
2018-06-11T01:03:09.613Z,0
2018-06-11T01:04:18.475Z,0
2018-06-11T01:05:27.386Z,0
2018-06-11T01:06:36.351Z,0
2018-06-11T01:07:45.769Z,0
2018-06-11T01:08:54.629Z,0
2018-06-11T01:10:03.767Z,0
2018-06-11T01:11:13.257Z,0
2018-06-11T01:12:22.399Z,0
2018-06-11T01:13:31.260Z,0
2018-06-11T01:14:40.399Z,0
2018-06-11T01:15:49.260Z,0
2018-06-11T01:16:58.122Z,0
2018-06-11T01:18:06.983Z,0
2018-06-11T01:19:15.844Z,0
2018-06-11T01:20:25.000Z,0
2018-06-11T01:21:34.137Z,0
2018-06-11T01:22:42.996Z,0
2018-06-11T01:23:52.133Z,0
2018-06-11T01:25:00.993Z,0
2018-06-11T01:26:10.141Z,0
2018-06-11T01:27:19.005Z,0
2018-06-11T01:28:27.913Z,0
2018-06-11T01:29:36.775Z,0
2018-06-11T01:30:45.916Z,0
2018-06-11T01:31:54.775Z,0
2018-06-11T01:33:03.637Z,0
2018-06-11T01:34:12.497Z,0
2018-06-11T01:35:21.357Z,0
2018-06-11T01:36:30.217Z,0
2018-06-11T01:37:39.077Z,0
2018-06-11T01:38:47.938Z,0
2018-06-11T01:39:56.800Z,0
2018-06-11T01:41:05.657Z,0
2018-06-11T01:42:14.518Z,0
2018-06-11T01:43:23.378Z,0
2018-06-11T01:44:32.512Z,0
2018-06-11T01:45:41.473Z,0
2018-06-11T01:46:50.332Z,0
2018-06-11T01:47:59.750Z,0
2018-06-11T01:49:08.614Z,0
2018-06-11T01:50:17.747Z,0
2018-06-11T01:51:26.758Z,0
2018-06-11T01:52:35.624Z,0
2018-06-11T01:53:44.480Z,0
2018-06-11T01:54:53.895Z,0
2018-06-11T01:56:02.754Z,0
2018-06-11T01:57:11.864Z,0
2018-06-11T01:58:20.728Z,0
2018-06-11T01:59:29.865Z,0
2018-06-11T02:00:38.726Z,0
2018-06-11T02:01:47.586Z,0
2018-06-11T02:02:56.774Z,0
2018-06-11T02:04:05.638Z,0
2018-06-11T02:05:14.777Z,0
2018-06-11T02:06:23.914Z,0
2018-06-11T02:07:32.773Z,0
2018-06-11T02:08:41.961Z,0
2018-06-11T02:09:50.823Z,0
2018-06-11T02:10:59.679Z,0
2018-06-11T02:12:08.548Z,0
2018-06-11T02:13:17.414Z,0
2018-06-11T02:14:26.424Z,0
2018-06-11T02:15:35.846Z,0
2018-06-11T02:16:44.707Z,0
2018-06-11T02:17:53.566Z,0
2018-06-11T02:19:02.713Z,0
2018-06-11T02:20:11.824Z,0
2018-06-11T02:21:20.958Z,0
2018-06-11T02:22:29.817Z,4
2018-06-11T02:23:38.680Z,4
2018-06-11T02:24:47.541Z,4
2018-06-11T02:25:56.827Z,0
2018-06-11T02:27:05.686Z,4
2018-06-11T02:28:14.828Z,4
2018-06-11T02:29:23.966Z,4
2018-06-11T02:30:33.115Z,0
2018-06-11T02:31:41.980Z,4
2018-06-11T02:32:51.121Z,4
2018-06-11T02:34:00.265Z,4
2018-06-11T02:35:09.681Z,8
2018-06-11T02:36:18.824Z,4
2018-06-11T02:37:28.113Z,8
2018-06-11T02:38:37.248Z,8
2018-06-11T02:39:46.114Z,8
2018-06-11T02:40:55.816Z,12
2018-06-11T02:42:04.680Z,12
2018-06-11T02:43:13.977Z,16
2018-06-11T02:44:23.117Z,16
2018-06-11T02:45:32.261Z,16
2018-06-11T02:46:41.402Z,16
2018-06-11T02:47:50.540Z,20
2018-06-11T02:48:59.551Z,20
2018-06-11T02:50:08.419Z,24
2018-06-11T02:51:17.864Z,28
2018-06-11T02:52:27.009Z,32
2018-06-11T02:53:36.704Z,36
2018-06-11T02:54:45.568Z,40
2018-06-11T02:55:54.708Z,40
2018-06-11T02:57:03.850Z,40
2018-06-11T02:58:12.714Z,48
2018-06-11T02:59:22.124Z,52
2018-06-11T03:00:31.368Z,56
2018-06-11T03:01:40.515Z,60
2018-06-11T03:02:49.372Z,68
2018-06-11T03:03:59.070Z,64
2018-06-11T03:05:07.929Z,76
2018-06-11T03:06:17.778Z,84
2018-06-11T03:07:26.640Z,88
2018-06-11T03:08:35.785Z,92
2018-06-11T03:09:45.480Z,108
2018-06-11T03:10:54.340Z,124
2018-06-11T03:12:03.910Z,124
2018-06-11T03:13:13.597Z,132
2018-06-11T03:14:22.735Z,132
2018-06-11T03:15:31.934Z,136
2018-06-11T03:16:41.032Z,140
2018-06-11T03:17:50.548Z,156
2018-06-11T03:18:59.411Z,160
2018-06-11T03:20:08.270Z,160
2018-06-11T03:21:17.408Z,160
2018-06-11T03:22:26.268Z,160
2018-06-11T03:23:35.189Z,172
2018-06-11T03:24:44.051Z,188
2018-06-11T03:25:52.912Z,216
2018-06-11T03:27:01.773Z,224
2018-06-11T03:28:10.634Z,232
2018-06-11T03:29:19.647Z,260
2018-06-11T03:30:28.790Z,300
2018-06-11T03:31:37.937Z,328
2018-06-11T03:32:47.348Z,324
2018-06-11T03:33:56.209Z,328
2018-06-11T03:35:05.419Z,336
2018-06-11T03:36:14.279Z,348
2018-06-11T03:37:23.142Z,348
2018-06-11T03:38:32.003Z,392
2018-06-11T03:39:41.138Z,440
2018-06-11T03:40:50.351Z,480
2018-06-11T03:41:59.494Z,496
2018-06-11T03:43:08.909Z,524
2018-06-11T03:44:17.767Z,548
2018-06-11T03:45:26.909Z,568
2018-06-11T03:46:35.771Z,568
2018-06-11T03:47:44.908Z,552
2018-06-11T03:48:53.772Z,556
2018-06-11T03:50:02.634Z,568
2018-06-11T03:51:11.495Z,592
2018-06-11T03:52:20.633Z,652
2018-06-11T03:53:29.496Z,756
2018-06-11T03:54:38.356Z,740
2018-06-11T03:55:47.217Z,720
2018-06-11T03:56:56.079Z,772
2018-06-11T03:58:05.214Z,812
2018-06-11T03:59:14.079Z,808
2018-06-11T04:00:22.941Z,792
2018-06-11T04:01:31.806Z,776
2018-06-11T04:02:40.668Z,812
2018-06-11T04:03:49.780Z,816
2018-06-11T04:04:58.639Z,820
2018-06-11T04:06:07.500Z,828
2018-06-11T04:07:16.372Z,868
2018-06-11T04:08:25.507Z,920
2018-06-11T04:09:34.419Z,976
2018-06-11T04:10:43.353Z,1048
2018-06-11T04:11:52.449Z,1176
2018-06-11T04:13:01.312Z,1172
2018-06-11T04:14:10.172Z,1080
2018-06-11T04:15:19.359Z,1188
2018-06-11T04:16:28.221Z,1308
2018-06-11T04:17:37.080Z,1376
2018-06-11T04:18:45.942Z,1360
2018-06-11T04:19:54.805Z,1392
2018-06-11T04:21:03.765Z,1372
2018-06-11T04:22:12.630Z,1404
2018-06-11T04:23:21.765Z,1624
2018-06-11T04:24:30.625Z,1604
2018-06-11T04:25:39.489Z,1588
2018-06-11T04:26:48.737Z,1556
2018-06-11T04:27:57.871Z,1676
2018-06-11T04:29:07.009Z,1640
2018-06-11T04:30:15.866Z,1800
2018-06-11T04:31:24.725Z,1900
2018-06-11T04:32:33.584Z,1932
2018-06-11T04:33:42.538Z,1964
2018-06-11T04:34:51.673Z,1988
2018-06-11T04:36:00.809Z,1816
2018-06-11T04:37:09.951Z,1856
2018-06-11T04:38:18.812Z,1892
2018-06-11T04:39:27.672Z,1984
2018-06-11T04:40:36.534Z,2056
2018-06-11T04:41:45.400Z,2148
2018-06-11T04:42:54.359Z,2140
2018-06-11T04:44:03.223Z,2160
2018-06-11T04:45:12.086Z,2180
2018-06-11T04:46:20.954Z,2320
2018-06-11T04:47:29.818Z,2272
2018-06-11T04:48:38.679Z,2280
2018-06-11T04:49:47.813Z,2368
2018-06-11T04:50:56.677Z,2332
2018-06-11T04:52:05.540Z,2264
2018-06-11T04:53:14.551Z,2272
2018-06-11T04:54:23.412Z,2208
2018-06-11T04:55:32.555Z,2436
2018-06-11T04:56:41.693Z,2516
2018-06-11T04:57:50.558Z,2512
2018-06-11T04:58:59.694Z,2588
2018-06-11T05:00:08.832Z,2652
2018-06-11T05:01:17.698Z,2628
2018-06-11T05:02:26.843Z,2688
2018-06-11T05:03:35.753Z,2764
2018-06-11T05:04:44.615Z,2800
2018-06-11T05:05:53.480Z,2612
2018-06-11T05:07:02.341Z,2680
2018-06-11T05:08:11.528Z,2788
2018-06-11T05:09:20.880Z,2768
2018-06-11T05:10:29.744Z,2944
2018-06-11T05:11:39.157Z,3056
2018-06-11T05:12:48.293Z,3012
2018-06-11T05:13:57.433Z,3024
2018-06-11T05:15:06.573Z,3036
2018-06-11T05:16:15.712Z,3080
2018-06-11T05:17:24.577Z,3120
2018-06-11T05:18:33.719Z,3144
2018-06-11T05:19:42.580Z,3184
2018-06-11T05:20:51.444Z,3060
2018-06-11T05:22:00.305Z,3204
2018-06-11T05:23:09.168Z,3420
2018-06-11T05:24:18.031Z,3592
2018-06-11T05:25:26.895Z,3640
2018-06-11T05:26:36.661Z,3504
2018-06-11T05:27:45.521Z,3532
2018-06-11T05:28:54.385Z,3556
2018-06-11T05:30:03.250Z,3632
2018-06-11T05:31:12.108Z,3568
2018-06-11T05:32:21.068Z,3524
2018-06-11T05:33:30.212Z,3648
2018-06-11T05:34:39.128Z,3792
2018-06-11T05:35:47.935Z,3936
2018-06-11T05:36:56.798Z,3868
2018-06-11T05:38:05.804Z,3888
2018-06-11T05:39:14.624Z,3840
2018-06-11T05:40:23.878Z,3896
2018-06-11T05:41:32.663Z,3784
2018-06-11T05:42:41.525Z,3724
2018-06-11T05:43:51.014Z,3692
2018-06-11T05:45:00.156Z,3732
2018-06-11T05:46:09.016Z,4012
2018-06-11T05:47:17.878Z,4000
2018-06-11T05:48:26.737Z,3816
2018-06-11T05:49:35.653Z,3940
2018-06-11T05:50:44.515Z,4128
2018-06-11T05:51:53.378Z,4148
2018-06-11T05:53:02.239Z,4220
2018-06-11T05:54:11.103Z,4440
2018-06-11T05:55:20.315Z,4212
2018-06-11T05:56:29.176Z,3964
2018-06-11T05:57:38.040Z,4104
2018-06-11T05:58:46.901Z,4268
2018-06-11T05:59:56.043Z,4304
2018-06-11T06:01:05.259Z,4276
2018-06-11T06:02:14.120Z,4476
2018-06-11T06:03:22.982Z,4424
2018-06-11T06:04:32.137Z,4400
2018-06-11T06:05:41.052Z,4428
2018-06-11T06:06:49.972Z,4124
2018-06-11T06:07:58.832Z,3896
2018-06-11T06:09:07.969Z,3908
2018-06-11T06:10:17.103Z,4312
2018-06-11T06:11:25.967Z,4904
2018-06-11T06:12:35.464Z,5156
2018-06-11T06:13:44.602Z,5232
2018-06-11T06:14:53.744Z,5056
2018-06-11T06:16:02.608Z,4748
2018-06-11T06:17:11.747Z,4296
2018-06-11T06:18:20.663Z,4160
2018-06-11T06:19:29.554Z,4732
2018-06-11T06:20:38.388Z,4336
2018-06-11T06:21:47.256Z,4432
2018-06-11T06:22:56.116Z,4848
2018-06-11T06:24:05.144Z,4340
2018-06-11T06:25:14.059Z,4492
2018-06-11T06:26:23.214Z,4900
2018-06-11T06:27:32.360Z,4828
2018-06-11T06:28:41.500Z,5096
2018-06-11T06:29:50.714Z,4788
2018-06-11T06:30:59.576Z,4208
2018-06-11T06:32:08.440Z,4500
2018-06-11T06:33:17.593Z,5092
2018-06-11T06:34:27.302Z,5028
2018-06-11T06:35:36.513Z,5068
2018-06-11T06:36:45.656Z,4728
2018-06-11T06:37:54.522Z,4412
2018-06-11T06:39:03.383Z,4852
2018-06-11T06:40:12.246Z,5084
2018-06-11T06:41:21.537Z,5168
2018-06-11T06:42:30.401Z,5036
2018-06-11T06:43:39.817Z,5440
2018-06-11T06:44:48.683Z,5704
2018-06-11T06:45:57.565Z,5612
2018-06-11T06:47:06.879Z,5312
2018-06-11T06:48:15.747Z,5412
2018-06-11T06:49:24.607Z,5744
2018-06-11T06:50:33.472Z,6136
2018-06-11T06:51:42.682Z,6160
2018-06-11T06:52:51.895Z,6100
2018-06-11T06:54:00.759Z,5840
2018-06-11T06:55:09.913Z,5760
2018-06-11T06:56:18.773Z,5720
2018-06-11T06:57:27.637Z,6200
2018-06-11T06:58:36.570Z,6336
2018-06-11T06:59:45.985Z,6336
2018-06-11T07:00:54.844Z,5964
2018-06-11T07:02:03.706Z,5624
2018-06-11T07:03:12.570Z,5036
2018-06-11T07:04:21.760Z,4632
2018-06-11T07:05:30.625Z,5340
2018-06-11T07:06:39.490Z,5804
2018-06-11T07:07:48.358Z,6444
2018-06-11T07:08:57.222Z,6584
2018-06-11T07:10:06.136Z,6464
2018-06-11T07:11:14.998Z,6592
2018-06-11T07:12:23.862Z,6296
2018-06-11T07:13:33.007Z,6360
2018-06-11T07:14:42.144Z,6196
2018-06-11T07:15:51.108Z,6044
2018-06-11T07:16:59.971Z,6088
2018-06-11T07:18:09.110Z,6332
2018-06-11T07:19:18.251Z,6316
2018-06-11T07:20:27.112Z,6444
2018-06-11T07:21:36.300Z,6092
2018-06-11T07:22:45.716Z,5644
2018-06-11T07:23:54.581Z,5492
2018-06-11T07:25:03.446Z,5616
2018-06-11T07:26:12.864Z,5568
2018-06-11T07:27:21.830Z,5372
2018-06-11T07:28:30.691Z,5532
2018-06-11T07:29:39.553Z,5332
2018-06-11T07:30:48.416Z,5320
2018-06-11T07:31:57.277Z,5364
2018-06-11T07:33:06.874Z,5928
2018-06-11T07:34:15.739Z,6548
2018-06-11T07:35:24.601Z,6852
2018-06-11T07:36:33.742Z,6512
2018-06-11T07:37:42.603Z,6200
2018-06-11T07:38:51.842Z,6180
2018-06-11T07:40:00.708Z,6352
2018-06-11T07:41:09.571Z,6488
2018-06-11T07:42:18.714Z,7276
2018-06-11T07:43:28.129Z,7880
2018-06-11T07:44:37.427Z,8580
2018-06-11T07:45:46.276Z,9128
2018-06-11T07:46:55.141Z,9392
2018-06-11T07:48:04.018Z,8960
2018-06-11T07:49:13.439Z,9076
2018-06-11T07:50:22.501Z,9164
2018-06-11T07:51:31.369Z,8976
2018-06-11T07:52:40.232Z,8752
2018-06-11T07:53:49.101Z,8104
2018-06-11T07:54:57.961Z,7876
2018-06-11T07:56:06.878Z,8204
2018-06-11T07:57:15.746Z,8676
2018-06-11T07:58:24.610Z,8440
2018-06-11T07:59:33.475Z,8424
2018-06-11T08:00:42.339Z,8432
2018-06-11T08:01:51.494Z,8704
2018-06-11T08:03:00.393Z,9076
2018-06-11T08:04:09.535Z,8820
2018-06-11T08:05:18.398Z,8368
2018-06-11T08:06:27.265Z,8376
2018-06-11T08:07:36.570Z,8584
2018-06-11T08:08:45.432Z,8732
2018-06-11T08:09:54.297Z,8792
2018-06-11T08:11:03.160Z,8656
2018-06-11T08:12:12.024Z,8716
2018-06-11T08:13:21.003Z,8840
2018-06-11T08:14:29.805Z,9224
2018-06-11T08:15:38.669Z,9680
2018-06-11T08:16:47.537Z,9764
2018-06-11T08:17:56.397Z,9736
2018-06-11T08:19:05.312Z,9824
2018-06-11T08:20:14.177Z,9696
2018-06-11T08:21:23.040Z,9512
2018-06-11T08:22:31.900Z,9432
2018-06-11T08:23:40.765Z,9476
2018-06-11T08:24:49.976Z,9616
2018-06-11T08:25:59.116Z,9800
2018-06-11T08:27:08.260Z,10224
2018-06-11T08:28:17.405Z,10288
2018-06-11T08:29:26.265Z,9920
2018-06-11T08:30:35.231Z,9512
2018-06-11T08:31:44.098Z,9204
2018-06-11T08:32:52.963Z,9288
2018-06-11T08:34:01.843Z,9752
2018-06-11T08:35:10.696Z,9832
2018-06-11T08:36:19.556Z,9744
2018-06-11T08:37:28.697Z,9664
2018-06-11T08:38:37.562Z,9380
2018-06-11T08:39:46.706Z,9564
2018-06-11T08:40:55.568Z,10072
2018-06-11T08:42:04.433Z,10180
2018-06-11T08:43:13.312Z,10384
2018-06-11T08:44:22.846Z,10864
2018-06-11T08:45:31.713Z,10636
2018-06-11T08:46:40.858Z,10352
2018-06-11T08:47:50.051Z,9900
2018-06-11T08:48:58.921Z,9304
2018-06-11T08:50:08.236Z,8940
2018-06-11T08:51:17.359Z,9192
2018-06-11T08:52:26.223Z,10108
2018-06-11T08:53:35.287Z,10712
2018-06-11T08:54:44.427Z,10836
2018-06-11T08:55:53.294Z,10484
2018-06-11T08:57:02.161Z,10380
2018-06-11T08:58:11.026Z,10464
2018-06-11T08:59:19.942Z,10852
2018-06-11T09:00:28.809Z,10696
2018-06-11T09:01:37.671Z,10672
2018-06-11T09:02:46.535Z,10704
2018-06-11T09:03:55.403Z,10396
2018-06-11T09:05:04.698Z,9636
2018-06-11T09:06:13.561Z,9408
2018-06-11T09:07:22.425Z,9568
2018-06-11T09:08:31.289Z,9652
2018-06-11T09:09:40.157Z,9712
2018-06-11T09:10:49.223Z,9656
2018-06-11T09:11:58.088Z,9116
2018-06-11T09:13:06.952Z,8620
2018-06-11T09:14:15.816Z,7688
2018-06-11T09:15:24.957Z,7264
2018-06-11T09:16:33.831Z,8028
2018-06-11T09:17:42.965Z,9480
2018-06-11T09:18:52.105Z,11000
2018-06-11T09:20:00.969Z,11736
2018-06-11T09:21:09.840Z,11628
2018-06-11T09:22:18.901Z,10928
2018-06-11T09:23:27.765Z,9672
2018-06-11T09:24:36.905Z,9132
2018-06-11T09:25:45.768Z,9548
2018-06-11T09:26:54.639Z,10260
2018-06-11T09:28:03.651Z,10520
2018-06-11T09:29:12.520Z,10084
2018-06-11T09:30:21.386Z,9760
2018-06-11T09:31:30.255Z,9568
2018-06-11T09:32:39.121Z,9252
2018-06-11T09:33:48.417Z,9008
2018-06-11T09:34:57.611Z,9104
2018-06-11T09:36:06.757Z,9068
2018-06-11T09:37:15.630Z,9516
2018-06-11T09:38:24.771Z,9948
2018-06-11T09:39:33.960Z,9964
2018-06-11T09:40:42.828Z,10180
2018-06-11T09:41:51.694Z,10484
2018-06-11T09:43:00.557Z,10260
2018-06-11T09:44:09.449Z,9860
2018-06-11T09:45:18.710Z,9016
2018-06-11T09:46:27.577Z,8024
2018-06-11T09:47:36.440Z,7096
2018-06-11T09:48:45.307Z,7112
2018-06-11T09:49:54.171Z,7152
2018-06-11T09:51:03.089Z,7088
2018-06-11T09:52:12.236Z,6684
2018-06-11T09:53:21.100Z,6272
2018-06-11T09:54:30.261Z,6076
2018-06-11T09:55:39.401Z,6156
2018-06-11T09:56:48.499Z,6156
2018-06-11T09:57:57.364Z,5772
2018-06-11T09:59:06.230Z,5304
2018-06-11T10:00:15.100Z,5004
2018-06-11T10:01:24.240Z,5648
2018-06-11T10:02:33.153Z,6248
2018-06-11T10:03:42.039Z,7276
2018-06-11T10:04:50.879Z,8852
2018-06-11T10:06:00.035Z,9424
2018-06-11T10:07:09.189Z,9760
2018-06-11T10:08:18.206Z,10200
2018-06-11T10:09:27.073Z,10268
2018-06-11T10:10:35.939Z,9320
2018-06-11T10:11:44.806Z,8796
2018-06-11T10:12:53.667Z,8532
2018-06-11T10:14:02.681Z,8300
2018-06-11T10:15:11.828Z,7520
2018-06-11T10:16:20.693Z,6956
2018-06-11T10:17:29.558Z,6252
2018-06-11T10:18:38.425Z,5796
2018-06-11T10:19:47.541Z,6516
2018-06-11T10:20:56.405Z,9848
2018-06-11T10:22:05.548Z,11952
2018-06-11T10:23:14.412Z,12004
2018-06-11T10:24:23.276Z,11788
2018-06-11T10:25:32.203Z,11220
2018-06-11T10:26:41.060Z,10596
2018-06-11T10:27:49.924Z,10204
2018-06-11T10:28:58.784Z,9724
2018-06-11T10:30:07.649Z,9448
2018-06-11T10:31:16.800Z,9344
2018-06-11T10:32:26.002Z,8536
2018-06-11T10:33:34.864Z,8060
2018-06-11T10:34:43.728Z,8712
2018-06-11T10:35:52.593Z,10008
2018-06-11T10:37:01.558Z,9496
2018-06-11T10:38:10.696Z,9352
2018-06-11T10:39:19.558Z,8808
2018-06-11T10:40:28.429Z,7476
2018-06-11T10:41:37.293Z,6492
2018-06-11T10:42:46.485Z,5324
2018-06-11T10:43:55.630Z,5204
2018-06-11T10:45:04.496Z,5660
2018-06-11T10:46:13.639Z,6308
2018-06-11T10:47:22.505Z,6208
2018-06-11T10:48:31.568Z,6868
2018-06-11T10:49:40.432Z,9596
2018-06-11T10:50:49.296Z,10800
2018-06-11T10:51:58.161Z,11168
2018-06-11T10:53:07.586Z,9072
2018-06-11T10:54:16.651Z,9580
2018-06-11T10:55:25.517Z,10412
2018-06-11T10:56:34.385Z,9856
2018-06-11T10:57:43.533Z,8996
2018-06-11T10:58:52.398Z,8524
2018-06-11T11:00:01.685Z,7384
2018-06-11T11:01:10.549Z,6564
2018-06-11T11:02:19.414Z,6360
2018-06-11T11:03:28.557Z,6544
2018-06-11T11:04:37.732Z,6864
2018-06-11T11:05:46.863Z,8324
2018-06-11T11:06:55.724Z,9864
2018-06-11T11:08:04.588Z,11056
2018-06-11T11:09:13.454Z,10844
2018-06-11T11:10:22.324Z,9920
2018-06-11T11:11:31.814Z,8648
2018-06-11T11:12:40.994Z,8972
2018-06-11T11:13:50.118Z,8676
2018-06-11T11:14:58.986Z,7988
2018-06-11T11:16:07.853Z,8304
2018-06-11T11:17:16.868Z,8480
2018-06-11T11:18:25.735Z,8624
2018-06-11T11:19:34.881Z,8756
2018-06-11T11:20:44.024Z,9256
2018-06-11T11:21:52.902Z,9556
2018-06-11T11:23:01.801Z,9664
2018-06-11T11:24:10.673Z,9576
2018-06-11T11:25:19.539Z,8752
2018-06-11T11:26:28.400Z,8568
2018-06-11T11:27:37.546Z,9124
2018-06-11T11:28:46.840Z,9200
2018-06-11T11:29:55.706Z,8956
2018-06-11T11:31:04.573Z,9896
2018-06-11T11:32:13.443Z,10640
2018-06-11T11:33:22.306Z,11656
2018-06-11T11:34:31.375Z,13552
2018-06-11T11:35:40.518Z,13888
2018-06-11T11:36:49.666Z,13824
2018-06-11T11:37:58.806Z,14332
2018-06-11T11:39:07.670Z,14676
2018-06-11T11:40:16.585Z,14872
2018-06-11T11:41:25.452Z,15204
2018-06-11T11:42:34.323Z,15536
2018-06-11T11:43:43.187Z,16040
2018-06-11T11:44:52.050Z,16576
2018-06-11T11:46:01.068Z,16608
2018-06-11T11:47:09.937Z,17248
2018-06-11T11:48:18.804Z,17216
2018-06-11T11:49:27.948Z,16864
2018-06-11T11:50:36.812Z,17280
2018-06-11T11:51:45.783Z,17248
2018-06-11T11:52:54.650Z,16672
2018-06-11T11:54:03.518Z,17056
2018-06-11T11:55:12.383Z,33504
2018-06-11T11:56:21.539Z,80672
2018-06-11T11:57:30.776Z,83008
2018-06-11T11:58:39.860Z,76064
2018-06-11T11:59:49.004Z,44640
2018-06-11T12:00:58.439Z,18272
2018-06-11T12:02:07.311Z,13484
2018-06-11T12:03:16.532Z,14936
2018-06-11T12:04:25.400Z,22400
2018-06-11T12:05:34.270Z,18848
2018-06-11T12:06:43.138Z,26624
2018-06-11T12:07:52.012Z,33920
2018-06-11T12:09:01.311Z,33088
2018-06-11T12:10:10.188Z,40384
2018-06-11T12:11:20.163Z,47168
2018-06-11T12:12:29.031Z,49088
2018-06-11T12:13:37.903Z,57248
2018-06-11T12:14:47.024Z,62144
2018-06-11T12:15:55.898Z,59072
2018-06-11T12:17:04.769Z,51168
2018-06-11T12:18:13.641Z,50336
2018-06-11T12:19:22.512Z,49536
2018-06-11T12:20:34.488Z,64288
2018-06-11T12:21:43.964Z,21664
2018-06-11T12:22:52.973Z,66464
2018-06-11T12:24:02.120Z,73408
2018-06-11T12:25:11.000Z,72576
2018-06-11T12:26:20.317Z,73792
2018-06-11T12:27:29.503Z,82048
2018-06-11T12:28:38.374Z,73504
2018-06-11T12:29:47.246Z,77536
2018-06-11T12:30:56.399Z,75328
2018-06-11T12:32:05.319Z,71456
2018-06-11T12:33:14.192Z,81728
2018-06-11T12:34:23.065Z,74368
2018-06-11T12:35:31.939Z,77312
2018-06-11T12:36:40.812Z,71424
2018-06-11T12:37:49.969Z,32096
2018-06-11T12:38:58.841Z,70688
2018-06-11T12:40:07.715Z,79168
2018-06-11T12:41:16.589Z,72928
2018-06-11T12:42:25.738Z,19488
2018-06-11T12:43:34.714Z,71840
2018-06-11T12:44:43.582Z,82144
2018-06-11T12:45:52.456Z,85856
2018-06-11T12:47:01.333Z,85952
2018-06-11T12:48:10.207Z,18976
2018-06-11T12:49:19.181Z,77088
2018-06-11T12:50:28.629Z,87168
2018-06-11T12:51:38.059Z,85664
2018-06-11T12:52:46.977Z,82080
2018-06-11T12:53:55.806Z,72576
2018-06-11T12:55:05.041Z,78720
2018-06-11T12:56:14.222Z,88832
2018-06-11T12:57:23.377Z,83584
2018-06-11T12:58:32.251Z,89600
2018-06-11T12:59:41.125Z,63456
2018-06-11T13:00:50.513Z,50464
2018-06-11T13:01:59.392Z,67296
2018-06-11T13:03:08.549Z,58816
2018-06-11T13:04:17.428Z,61760
2018-06-11T13:05:29.469Z,50400
2018-06-11T13:06:40.996Z,18976
2018-06-11T13:07:52.706Z,62048
2018-06-11T13:09:04.436Z,69600
2018-06-11T13:10:15.444Z,75200
2018-06-11T13:11:25.599Z,19648
2018-06-11T13:12:34.852Z,44288
2018-06-11T13:13:43.726Z,33824
2018-06-11T13:14:52.606Z,83200
2018-06-11T13:16:01.754Z,87456
2018-06-11T13:17:10.909Z,83904
2018-06-11T13:18:19.885Z,78368
2018-06-11T13:19:29.039Z,75712
2018-06-11T13:20:37.915Z,69088
2018-06-11T13:21:46.788Z,75616
2018-06-11T13:22:55.665Z,85248
2018-06-11T13:24:04.544Z,80768
2018-06-11T13:25:13.431Z,83104
2018-06-11T13:26:22.578Z,87680
2018-06-11T13:27:31.454Z,85984
2018-06-11T13:28:40.330Z,77408
2018-06-11T13:29:49.259Z,79008
2018-06-11T13:30:58.419Z,82464
2018-06-11T13:32:07.300Z,84576
2018-06-11T13:33:16.178Z,84096
2018-06-11T13:34:25.054Z,82656
2018-06-11T13:35:34.131Z,86016
2018-06-11T13:36:43.338Z,88704
2018-06-11T13:37:52.218Z,88064
2018-06-11T13:39:01.112Z,88192
2018-06-11T13:40:10.267Z,90688
2018-06-11T13:41:19.494Z,87424
2018-06-11T13:42:28.653Z,89216
2018-06-11T13:43:37.529Z,89344
2018-06-11T13:44:46.857Z,90176
2018-06-11T13:45:55.620Z,83040
2018-06-11T13:47:04.499Z,86656
2018-06-11T13:48:13.943Z,88832
2018-06-11T13:49:22.821Z,91168
2018-06-11T13:50:31.702Z,91360
2018-06-11T13:51:40.582Z,89888
2018-06-11T13:52:49.510Z,90624
2018-06-11T13:53:58.390Z,91360
2018-06-11T13:55:07.818Z,86432
2018-06-11T13:56:16.697Z,92608
2018-06-11T13:57:25.580Z,93088
2018-06-11T13:58:34.510Z,98496
2018-06-11T13:59:43.393Z,90208
2018-06-11T14:00:52.273Z,81248
2018-06-11T14:02:01.153Z,27456
2018-06-11T14:03:10.035Z,82240
2018-06-11T14:04:19.267Z,83488
2018-06-11T14:05:28.149Z,85824
2018-06-11T14:06:37.031Z,84800
2018-06-11T14:07:45.911Z,80896
2018-06-11T14:08:54.801Z,14200
2018-06-11T14:10:03.732Z,35936
2018-06-11T14:11:12.885Z,22496
2018-06-11T14:12:21.761Z,83776
2018-06-11T14:13:30.646Z,82368
2018-06-11T14:14:39.523Z,85824
2018-06-11T14:15:48.401Z,78848
2018-06-11T14:16:57.282Z,85984
2018-06-11T14:18:06.438Z,90240
2018-06-11T14:19:15.346Z,86944
2018-06-11T14:20:24.473Z,81376
2018-06-11T14:21:33.400Z,79264
2018-06-11T14:22:42.278Z,84992
2018-06-11T14:23:51.432Z,84960
2018-06-11T14:25:00.311Z,89472
2018-06-11T14:26:09.471Z,86528
2018-06-11T14:27:18.728Z,85248
2018-06-11T14:28:27.606Z,87136
2018-06-11T14:29:36.488Z,86208
2018-06-11T14:30:45.362Z,81184
2018-06-11T14:31:54.242Z,84992
2018-06-11T14:33:03.176Z,83712
2018-06-11T14:34:12.057Z,83456
2018-06-11T14:35:20.935Z,82080
2018-06-11T14:36:30.371Z,59392
2018-06-11T14:37:39.526Z,76576
2018-06-11T14:38:48.689Z,82464
2018-06-11T14:39:57.570Z,75456
2018-06-11T14:41:06.481Z,76096
2018-06-11T14:42:15.934Z,81344
2018-06-11T14:43:24.815Z,64256
2018-06-11T14:44:33.943Z,83072
2018-06-11T14:45:42.824Z,21280
2018-06-11T14:46:51.703Z,62496
2018-06-11T14:48:00.582Z,77504
2018-06-11T14:49:09.464Z,75712
2018-06-11T14:50:18.346Z,73888
2018-06-11T14:51:27.226Z,74016
2018-06-11T14:52:36.103Z,75936
2018-06-11T14:53:45.269Z,76192
2018-06-11T14:54:54.148Z,75392
2018-06-11T14:56:03.383Z,76256
2018-06-11T14:57:12.265Z,76352
2018-06-11T14:58:21.779Z,77728
2018-06-11T14:59:30.608Z,75648
2018-06-11T15:00:39.767Z,75392
2018-06-11T15:01:48.809Z,74592
2018-06-11T15:02:57.689Z,27904
2018-06-11T15:04:06.850Z,82848
2018-06-11T15:05:15.737Z,84928
2018-06-11T15:06:24.620Z,84800
2018-06-11T15:07:33.774Z,83136
2018-06-11T15:08:42.656Z,80192
2018-06-11T15:09:51.536Z,82592
2018-06-11T15:11:00.418Z,82432
2018-06-11T15:12:09.857Z,79744
2018-06-11T15:13:18.737Z,80384
2018-06-11T15:14:27.615Z,78848
2018-06-11T15:15:36.502Z,75584
2018-06-11T15:16:45.379Z,81600
2018-06-11T15:17:54.263Z,72512
2018-06-11T15:19:03.242Z,43616
2018-06-11T15:20:12.408Z,24352
2018-06-11T15:21:21.287Z,19136
2018-06-11T15:22:30.167Z,75008
2018-06-11T15:23:39.050Z,58496
2018-06-11T15:24:47.975Z,76096
2018-06-11T15:25:56.855Z,77536
2018-06-11T15:27:05.733Z,74048
2018-06-11T15:28:14.611Z,76320
2018-06-11T15:29:23.514Z,74816